createdAt,value
2022-08-18T00:00:25.014Z,99.36
2022-08-18T00:01:25.058Z,99.56
2022-08-18T00:02:30.095Z,99.87
2022-08-18T00:03:52.978Z,99.76
2022-08-18T00:04:34.938Z,99.76
2022-08-18T00:05:24.928Z,99.66
2022-08-18T00:06:24.939Z,99.96
2022-08-18T00:07:24.897Z,99.96
2022-08-18T00:08:24.899Z,99.99
2022-08-18T00:09:30.165Z,99.96
2022-08-18T00:10:24.870Z,99.87
2022-08-18T00:11:24.860Z,99.87
2022-08-18T00:12:24.918Z,99.99
2022-08-18T00:13:24.826Z,99.99
2022-08-18T00:14:24.819Z,99.96
2022-08-18T00:15:24.820Z,99.66
2022-08-18T00:16:25.166Z,99.56
2022-08-18T00:17:24.789Z,99.46
2022-08-18T00:18:24.820Z,99.46
2022-08-18T00:19:45.424Z,99.36
2022-08-18T00:20:24.782Z,99.36
2022-08-18T00:21:24.760Z,99.36
2022-08-18T00:22:24.752Z,99.46
2022-08-18T00:23:25.209Z,99.46
2022-08-18T00:24:24.747Z,99.46
2022-08-18T00:25:24.796Z,99.36
2022-08-18T00:26:24.705Z,99.31
2022-08-18T00:27:28.112Z,99.31
2022-08-18T00:28:24.710Z,99.31
2022-08-18T00:29:24.661Z,99.31
2022-08-18T00:30:25.108Z,99.41
2022-08-18T00:31:24.664Z,99.61
2022-08-18T00:32:24.645Z,99.81
2022-08-18T00:33:24.611Z,99.91
2022-08-18T00:34:24.620Z,99.91
2022-08-18T00:35:24.614Z,99.96
2022-08-18T00:36:24.624Z,99.99
2022-08-18T00:37:24.869Z,99.99
2022-08-18T00:38:25.524Z,99.99
2022-08-18T00:39:24.571Z,99.99
2022-08-18T00:40:24.624Z,99.99
2022-08-18T00:41:24.591Z,99.99
2022-08-18T00:42:27.389Z,99.99
2022-08-18T00:43:24.507Z,99.99
2022-08-18T00:44:24.946Z,99.99
2022-08-18T00:45:24.493Z,99.99
2022-08-18T00:46:24.478Z,99.99
2022-08-18T00:47:41.345Z,99.99
2022-08-18T00:48:24.503Z,99.99
2022-08-18T00:49:24.443Z,99.99
2022-08-18T00:50:24.462Z,99.99
2022-08-18T00:51:24.787Z,99.99
2022-08-18T00:52:24.409Z,99.99
2022-08-18T00:53:24.425Z,99.99
2022-08-18T00:54:24.450Z,99.99
2022-08-18T00:55:24.415Z,99.99
2022-08-18T00:56:24.396Z,99.99
2022-08-18T00:57:24.358Z,99.99
2022-08-18T00:58:24.835Z,99.99
2022-08-18T00:59:24.329Z,99.99
2022-08-18T01:00:24.358Z,99.99
2022-08-18T01:01:24.453Z,99.99
2022-08-18T01:02:24.309Z,99.99
2022-08-18T01:03:25.005Z,99.99
2022-08-18T01:04:24.310Z,99.99
2022-08-18T01:05:24.667Z,99.99
2022-08-18T01:06:24.306Z,99.99
2022-08-18T01:07:24.265Z,99.99
2022-08-18T01:08:28.641Z,99.99
2022-08-18T01:09:24.273Z,99.99
2022-08-18T01:10:24.224Z,99.99
2022-08-18T01:11:24.223Z,99.99
2022-08-18T01:12:43.789Z,99.99
2022-08-18T01:13:24.190Z,99.99
2022-08-18T01:14:24.207Z,99.99
2022-08-18T01:15:29.165Z,99.99
2022-08-18T01:16:24.202Z,99.99
2022-08-18T01:17:24.150Z,99.99
2022-08-18T01:18:24.211Z,99.99
2022-08-18T01:19:24.453Z,99.99
2022-08-18T01:20:24.120Z,99.99
2022-08-18T01:21:24.112Z,99.99
2022-08-18T01:22:24.098Z,99.99
2022-08-18T01:23:24.087Z,99.99
2022-08-18T01:24:24.126Z,99.99
2022-08-18T01:25:26.222Z,99.99
2022-08-18T01:26:24.431Z,99.99
2022-08-18T01:27:24.073Z,99.99
2022-08-18T01:28:24.027Z,99.99
2022-08-18T01:29:24.028Z,99.99
2022-08-18T01:30:24.061Z,99.99
2022-08-18T01:31:24.000Z,99.99
2022-08-18T01:32:23.994Z,99.99
2022-08-18T01:33:26.738Z,99.99
2022-08-18T01:34:23.994Z,99.99
2022-08-18T01:35:23.946Z,99.99
2022-08-18T01:36:23.977Z,99.99
2022-08-18T01:37:23.938Z,99.99
2022-08-18T01:38:23.927Z,99.99
2022-08-18T01:41:24.064Z,99.99
2022-08-18T01:41:34.135Z,99.99
2022-08-18T01:41:39.147Z,99.99
2022-08-18T01:42:39.073Z,99.99
2022-08-18T01:43:39.088Z,99.99
2022-08-18T01:44:39.045Z,99.99
2022-08-18T01:45:39.035Z,99.99
2022-08-18T01:46:39.557Z,99.99
2022-08-18T01:47:47.595Z,99.99
2022-08-18T01:48:39.014Z,99.99
2022-08-18T01:49:39.005Z,99.99
2022-08-18T01:50:38.993Z,99.99
2022-08-18T01:51:40.755Z,99.99
2022-08-18T01:52:39.011Z,99.99
2022-08-18T01:53:39.332Z,99.99
2022-08-18T01:54:38.943Z,99.99
2022-08-18T01:55:38.922Z,99.99
2022-08-18T01:56:38.959Z,99.99
2022-08-18T01:57:38.946Z,99.99
2022-08-18T01:58:38.934Z,99.99
2022-08-18T01:59:38.916Z,99.99
2022-08-18T02:00:39.170Z,99.99
2022-08-18T02:01:38.895Z,99.99
2022-08-18T02:02:38.878Z,99.99
2022-08-18T02:03:38.936Z,99.99
2022-08-18T02:04:38.881Z,99.99
2022-08-18T02:05:38.825Z,99.99
2022-08-18T02:06:38.842Z,99.99
2022-08-18T02:07:39.220Z,99.99
2022-08-18T02:08:38.795Z,99.99
2022-08-18T02:09:38.788Z,99.99
2022-08-18T02:10:38.830Z,99.99
2022-08-18T02:11:38.759Z,99.99
2022-08-18T02:12:38.749Z,99.99
2022-08-18T02:13:38.744Z,99.99
2022-08-18T02:14:39.108Z,99.99
2022-08-18T02:15:38.712Z,99.99
2022-08-18T02:16:38.738Z,99.99
2022-08-18T02:17:38.684Z,99.99
2022-08-18T02:18:47.681Z,99.99
2022-08-18T02:19:38.759Z,99.99
2022-08-18T02:20:38.666Z,99.99
2022-08-18T02:21:39.132Z,99.99
2022-08-18T02:22:38.742Z,99.99
2022-08-18T02:23:38.627Z,99.99
2022-08-18T02:24:38.643Z,99.99
2022-08-18T02:25:38.639Z,99.99
2022-08-18T02:26:38.627Z,99.99
2022-08-18T02:27:38.590Z,99.99
2022-08-18T02:28:39.010Z,99.99
2022-08-18T02:29:38.561Z,99.99
2022-08-18T02:30:38.563Z,99.99
2022-08-18T02:31:38.541Z,99.99
2022-08-18T02:32:38.572Z,99.99
2022-08-18T02:33:38.550Z,99.99
2022-08-18T02:34:38.540Z,99.99
2022-08-18T02:35:38.796Z,99.99
2022-08-18T02:36:38.524Z,99.99
2022-08-18T02:37:38.488Z,99.99
2022-08-18T02:38:38.486Z,99.99
2022-08-18T02:39:38.518Z,99.99
2022-08-18T02:40:38.534Z,99.99
2022-08-18T02:41:38.452Z,99.99
2022-08-18T02:42:38.854Z,99.99
2022-08-18T02:43:38.413Z,99.99
2022-08-18T02:44:38.409Z,99.99
2022-08-18T02:45:38.390Z,99.99
2022-08-18T02:46:38.431Z,99.99
2022-08-18T02:47:38.380Z,99.99
2022-08-18T02:48:38.379Z,99.99
2022-08-18T02:49:38.682Z,99.99
2022-08-18T02:50:38.350Z,99.99
2022-08-18T02:51:38.373Z,99.99
2022-08-18T02:52:38.389Z,99.99
2022-08-18T02:53:38.327Z,99.99
2022-08-18T02:54:38.309Z,99.99
2022-08-18T02:55:38.322Z,99.99
2022-08-18T02:56:41.796Z,99.99
2022-08-18T02:57:38.269Z,99.99
2022-08-18T02:58:38.320Z,99.99
2022-08-18T02:59:38.258Z,99.99
2022-08-18T03:00:38.245Z,99.99
2022-08-18T03:01:38.339Z,99.99
2022-08-18T03:02:38.251Z,99.99
2022-08-18T03:03:38.584Z,99.99
2022-08-18T03:04:38.232Z,99.99
2022-08-18T03:05:38.212Z,99.99
2022-08-18T03:06:38.172Z,99.99
2022-08-18T03:07:38.171Z,99.99
2022-08-18T03:08:38.165Z,99.95
2022-08-18T03:09:38.143Z,99.95
2022-08-18T03:10:38.485Z,99.99
2022-08-18T03:11:38.143Z,99.99
2022-08-18T03:12:38.110Z,99.99
2022-08-18T03:13:38.096Z,99.99
2022-08-18T03:14:38.082Z,99.99
2022-08-18T03:15:38.109Z,99.95
2022-08-18T03:16:38.102Z,99.95
2022-08-18T03:17:38.479Z,99.85
2022-08-18T03:18:38.056Z,99.85
2022-08-18T03:19:38.049Z,99.85
2022-08-18T03:20:38.021Z,99.80
2022-08-18T03:21:38.027Z,99.75
2022-08-18T03:22:38.035Z,99.71
2022-08-18T03:23:38.003Z,99.80
2022-08-18T03:24:38.301Z,99.99
2022-08-18T03:25:37.999Z,99.99
2022-08-18T03:26:37.963Z,99.99
2022-08-18T03:27:37.980Z,99.99
2022-08-18T03:28:38.008Z,99.99
2022-08-18T03:29:37.933Z,99.99
2022-08-18T03:30:37.919Z,99.99
2022-08-18T03:31:38.354Z,99.99
2022-08-18T03:32:37.892Z,99.99
2022-08-18T03:33:37.894Z,99.99
2022-08-18T03:34:37.930Z,99.99
2022-08-18T03:35:37.864Z,99.99
2022-08-18T03:36:38.462Z,99.99
2022-08-18T03:37:37.860Z,99.99
2022-08-18T03:38:38.200Z,99.99
2022-08-18T03:39:37.895Z,99.99
2022-08-18T03:40:37.841Z,99.99
2022-08-18T03:41:57.599Z,99.99
2022-08-18T03:42:37.796Z,99.99
2022-08-18T03:43:49.761Z,99.99
2022-08-18T03:44:37.810Z,99.99
2022-08-18T03:45:38.265Z,99.99
2022-08-18T03:46:37.777Z,99.99
2022-08-18T03:47:37.742Z,99.99
2022-08-18T03:48:37.719Z,99.99
2022-08-18T03:49:37.717Z,99.99
2022-08-18T03:50:37.729Z,99.99
2022-08-18T03:51:37.703Z,99.99
2022-08-18T03:52:41.636Z,99.99
2022-08-18T03:53:37.675Z,99.99
2022-08-18T03:54:37.693Z,99.99
2022-08-18T03:55:37.661Z,99.99
2022-08-18T03:56:37.652Z,99.99
2022-08-18T03:57:39.157Z,99.99
2022-08-18T03:58:37.642Z,99.99
2022-08-18T03:59:37.924Z,99.99
2022-08-18T04:00:37.631Z,99.99
2022-08-18T04:01:37.788Z,99.99
2022-08-18T04:02:37.579Z,99.99
2022-08-18T04:03:37.577Z,99.99
2022-08-18T04:04:37.623Z,99.99
2022-08-18T04:05:37.556Z,99.99
2022-08-18T04:06:37.999Z,99.99
2022-08-18T04:07:37.528Z,99.99
2022-08-18T04:08:37.555Z,99.99
2022-08-18T04:09:37.508Z,99.99
2022-08-18T04:10:37.552Z,99.99
2022-08-18T04:11:37.493Z,99.99
2022-08-18T04:12:37.466Z,99.99
2022-08-18T04:13:37.821Z,99.99
2022-08-18T04:14:37.440Z,99.99
2022-08-18T04:15:37.441Z,99.99
2022-08-18T04:16:37.454Z,99.99
2022-08-18T04:18:03.031Z,99.99
2022-08-18T04:18:37.405Z,99.99
2022-08-18T04:19:37.395Z,99.99
2022-08-18T04:20:37.870Z,99.99
2022-08-18T04:21:37.408Z,99.99
2022-08-18T04:22:37.385Z,99.99
2022-08-18T04:23:43.610Z,99.99
2022-08-18T04:24:37.361Z,99.99
2022-08-18T04:25:37.339Z,99.99
2022-08-18T04:26:37.313Z,99.99
2022-08-18T04:27:37.713Z,99.99
2022-08-18T04:28:37.339Z,99.99
2022-08-18T04:29:37.294Z,99.99
2022-08-18T04:30:37.288Z,99.99
2022-08-18T04:31:37.265Z,99.99
2022-08-18T04:32:37.252Z,99.99
2022-08-18T04:33:37.270Z,99.99
2022-08-18T04:34:37.610Z,99.99
2022-08-18T04:35:37.239Z,99.99
2022-08-18T04:36:37.221Z,99.99
2022-08-18T04:37:38.068Z,99.99
2022-08-18T04:38:37.188Z,99.99
2022-08-18T04:39:37.244Z,99.99
2022-08-18T04:40:37.230Z,99.99
2022-08-18T04:41:37.608Z,99.99
2022-08-18T04:42:39.385Z,99.99
2022-08-18T04:43:37.172Z,99.99
2022-08-18T04:44:37.124Z,99.99
2022-08-18T04:45:37.118Z,99.99
2022-08-18T04:46:37.159Z,99.99
2022-08-18T04:47:37.105Z,99.99
2022-08-18T04:48:37.453Z,99.99
2022-08-18T04:49:37.123Z,99.99
2022-08-18T04:50:37.065Z,99.99
2022-08-18T04:52:34.157Z,99.99
2022-08-18T04:52:44.180Z,99.99
2022-08-18T04:53:37.051Z,99.99
2022-08-18T04:54:37.015Z,99.99
2022-08-18T04:55:37.496Z,99.99
2022-08-18T04:56:36.998Z,99.99
2022-08-18T04:57:36.997Z,99.99
2022-08-18T04:58:37.004Z,99.99
2022-08-18T04:59:36.967Z,99.99
2022-08-18T05:00:36.951Z,99.99
2022-08-18T05:01:36.976Z,99.99
2022-08-18T05:02:37.201Z,99.99
2022-08-18T05:03:36.948Z,99.99
2022-08-18T05:04:36.950Z,99.99
2022-08-18T05:05:36.899Z,99.99
2022-08-18T05:06:37.639Z,99.99
2022-08-18T05:07:36.887Z,99.99
2022-08-18T05:08:36.855Z,99.99
2022-08-18T05:09:41.441Z,99.99
2022-08-18T05:10:36.891Z,99.99
2022-08-18T05:11:36.845Z,99.99
2022-08-18T05:12:36.837Z,99.99
2022-08-18T05:13:36.811Z,99.99
2022-08-18T05:14:36.809Z,99.99
2022-08-18T05:15:59.316Z,99.99
2022-08-18T05:16:48.246Z,99.99
2022-08-18T05:17:36.780Z,99.99
2022-08-18T05:18:36.759Z,99.99
2022-08-18T05:19:38.577Z,99.99
2022-08-18T05:20:36.764Z,99.99
2022-08-18T05:21:36.741Z,99.99
2022-08-18T05:22:37.111Z,99.99
2022-08-18T05:23:36.741Z,99.99
2022-08-18T05:24:37.531Z,99.99
2022-08-18T05:25:36.707Z,99.99
2022-08-18T05:26:36.668Z,99.99
2022-08-18T05:27:36.663Z,99.99
2022-08-18T05:28:36.669Z,99.99
2022-08-18T05:29:41.655Z,99.99
2022-08-18T05:30:36.626Z,99.99
2022-08-18T05:31:36.623Z,99.99
2022-08-18T05:32:47.574Z,99.99
2022-08-18T05:33:36.646Z,99.99
2022-08-18T05:34:36.620Z,99.99
2022-08-18T05:35:36.608Z,99.99
2022-08-18T05:36:36.944Z,99.99
2022-08-18T05:37:36.559Z,99.99
2022-08-18T05:38:36.563Z,99.99
2022-08-18T05:39:36.577Z,99.99
2022-08-18T05:40:36.556Z,99.99
2022-08-18T05:41:36.518Z,99.99
2022-08-18T05:42:36.543Z,99.99
2022-08-18T05:43:41.863Z,99.99
2022-08-18T05:44:36.474Z,99.99
2022-08-18T05:45:36.470Z,99.99
2022-08-18T05:46:36.496Z,99.99
2022-08-18T05:47:36.448Z,99.99
2022-08-18T05:48:41.202Z,99.99
2022-08-18T05:49:36.435Z,99.99
2022-08-18T05:50:36.852Z,99.99
2022-08-18T05:51:36.422Z,99.99
2022-08-18T05:52:36.428Z,99.99
2022-08-18T05:53:36.401Z,99.99
2022-08-18T05:54:36.374Z,99.99
2022-08-18T05:55:36.373Z,99.99
2022-08-18T05:56:36.347Z,99.99
2022-08-18T05:57:36.675Z,99.99
2022-08-18T05:58:36.372Z,99.99
2022-08-18T05:59:36.323Z,99.99
2022-08-18T06:00:36.299Z,99.99
2022-08-18T06:01:36.339Z,99.99
2022-08-18T06:02:36.356Z,99.99
2022-08-18T06:03:45.325Z,99.99
2022-08-18T06:04:36.306Z,99.99
2022-08-18T06:05:36.258Z,99.99
2022-08-18T06:06:36.248Z,99.99
2022-08-18T06:07:36.240Z,99.99
2022-08-18T06:08:36.216Z,99.99
2022-08-18T06:09:36.222Z,99.99
2022-08-18T06:10:36.611Z,99.99
2022-08-18T06:11:36.207Z,99.99
2022-08-18T06:12:37.285Z,99.99
2022-08-18T06:13:36.214Z,99.99
2022-08-18T06:14:36.163Z,99.99
2022-08-18T06:15:36.166Z,99.99
2022-08-18T06:16:36.186Z,99.99
2022-08-18T06:17:36.134Z,99.99
2022-08-18T06:18:36.159Z,99.99
2022-08-18T06:19:36.113Z,99.99
2022-08-18T06:20:36.101Z,99.99
2022-08-18T06:21:39.181Z,99.99
2022-08-18T06:22:36.486Z,99.99
2022-08-18T06:23:36.068Z,99.99
2022-08-18T06:24:36.095Z,99.99
2022-08-18T06:25:36.039Z,99.99
2022-08-18T06:26:36.058Z,99.99
2022-08-18T06:27:36.027Z,99.99
2022-08-18T06:28:36.042Z,99.99
2022-08-18T06:29:36.002Z,99.99
2022-08-18T06:30:36.014Z,99.99
2022-08-18T06:31:35.983Z,99.99
2022-08-18T06:32:35.962Z,99.99
2022-08-18T06:33:35.987Z,99.99
2022-08-18T06:34:36.362Z,99.99
2022-08-18T06:35:35.933Z,99.99
2022-08-18T06:36:35.954Z,99.99
2022-08-18T06:37:35.916Z,99.99
2022-08-18T06:38:35.931Z,99.99
2022-08-18T06:39:35.945Z,99.99
2022-08-18T06:40:35.925Z,99.99
2022-08-18T06:41:42.012Z,99.99
2022-08-18T06:42:40.322Z,99.99
2022-08-18T06:43:35.850Z,99.99
2022-08-18T06:44:35.856Z,99.99
2022-08-18T06:45:39.759Z,99.99
2022-08-18T06:46:35.876Z,99.99
2022-08-18T06:47:35.807Z,99.99
2022-08-18T06:48:36.196Z,99.99
2022-08-18T06:49:35.810Z,99.99
2022-08-18T06:50:35.771Z,99.99
2022-08-18T06:51:40.540Z,99.99
2022-08-18T06:52:36.188Z,99.99
2022-08-18T06:53:35.771Z,99.99
2022-08-18T06:54:35.719Z,99.99
2022-08-18T06:55:37.096Z,99.99
2022-08-18T06:56:35.733Z,99.99
2022-08-18T06:57:35.704Z,99.99
2022-08-18T06:58:35.722Z,99.99
2022-08-18T06:59:35.709Z,99.99
2022-08-18T07:00:35.687Z,99.99
2022-08-18T07:01:35.728Z,99.99
2022-08-18T07:02:36.083Z,99.99
2022-08-18T07:03:35.637Z,99.99
2022-08-18T07:04:35.674Z,99.99
2022-08-18T07:05:35.634Z,99.99
2022-08-18T07:06:35.593Z,99.99
2022-08-18T07:07:40.154Z,99.99
2022-08-18T07:08:35.885Z,99.99
2022-08-18T07:09:35.931Z,99.99
2022-08-18T07:10:35.590Z,99.99
2022-08-18T07:11:35.572Z,99.99
2022-08-18T07:12:35.795Z,99.99
2022-08-18T07:13:35.529Z,99.99
2022-08-18T07:14:35.520Z,99.99
2022-08-18T07:15:35.550Z,99.99
2022-08-18T07:16:57.363Z,99.99
2022-08-18T07:17:42.204Z,99.99
2022-08-18T07:18:35.510Z,99.91
2022-08-18T07:19:35.488Z,99.61
2022-08-18T07:20:35.450Z,99.61
2022-08-18T07:21:35.456Z,99.51
2022-08-18T07:22:39.655Z,99.51
2022-08-18T07:23:35.845Z,99.41
2022-08-18T07:24:35.418Z,99.31
2022-08-18T07:25:35.430Z,99.41
2022-08-18T07:26:35.401Z,99.21
2022-08-18T07:27:35.383Z,99.31
2022-08-18T07:28:35.409Z,99.31
2022-08-18T07:29:35.358Z,99.21
2022-08-18T07:30:35.683Z,98.76
2022-08-18T07:31:35.371Z,98.66
2022-08-18T07:32:35.336Z,98.46
2022-08-18T07:33:35.309Z,98.25
2022-08-18T07:34:35.384Z,98.16
2022-08-18T07:35:35.350Z,98.16
2022-08-18T07:36:35.306Z,98.05
2022-08-18T07:37:35.753Z,97.85
2022-08-18T07:38:43.985Z,98.05
2022-08-18T07:39:35.362Z,97.96
2022-08-18T07:40:35.277Z,97.66
2022-08-18T07:41:35.284Z,97.75
2022-08-18T07:43:00.597Z,97.31
2022-08-18T07:43:35.572Z,97.00
2022-08-18T07:44:35.204Z,97.00
2022-08-18T07:45:35.207Z,96.91
2022-08-18T07:46:35.228Z,96.80
2022-08-18T07:47:35.184Z,96.00
2022-08-18T07:48:38.529Z,96.00
2022-08-18T07:49:35.418Z,95.90
2022-08-18T07:50:58.323Z,95.70
2022-08-18T07:51:37.487Z,95.80
2022-08-18T07:52:43.773Z,95.60
2022-08-18T07:53:35.118Z,95.90
2022-08-18T07:54:51.073Z,96.00
2022-08-18T07:55:35.120Z,96.20
2022-08-18T07:56:35.115Z,96.41
2022-08-18T07:57:42.614Z,96.60
2022-08-18T07:58:35.120Z,96.85
2022-08-18T07:59:35.041Z,96.95
2022-08-18T08:00:57.381Z,97.15
2022-08-18T08:01:35.076Z,96.95
2022-08-18T08:02:35.008Z,97.05
2022-08-18T08:03:34.992Z,96.95
2022-08-18T08:04:35.353Z,96.91
2022-08-18T08:05:34.973Z,96.91
2022-08-18T08:06:34.976Z,97.00
2022-08-18T08:07:34.988Z,97.00
2022-08-18T08:08:34.944Z,96.70
2022-08-18T08:09:34.930Z,96.50
2022-08-18T08:10:34.966Z,96.10
2022-08-18T08:11:35.330Z,95.80
2022-08-18T08:12:34.908Z,95.90
2022-08-18T08:13:54.095Z,95.80
2022-08-18T08:14:34.898Z,95.90
2022-08-18T08:15:34.856Z,95.80
2022-08-18T08:16:34.889Z,95.75
2022-08-18T08:17:34.875Z,95.55
2022-08-18T08:18:35.184Z,94.75
2022-08-18T08:19:58.746Z,94.85
2022-08-18T08:20:34.826Z,94.85
2022-08-18T08:21:34.815Z,94.65
2022-08-18T08:22:34.819Z,93.80
2022-08-18T08:23:34.791Z,93.50
2022-08-18T08:24:35.247Z,93.40
2022-08-18T08:25:46.252Z,93.00
2022-08-18T08:26:34.765Z,92.55
2022-08-18T08:27:34.757Z,91.85
2022-08-18T08:28:34.780Z,91.45
2022-08-18T08:29:34.710Z,91.11
2022-08-18T08:30:34.721Z,91.01
2022-08-18T08:31:37.325Z,90.50
2022-08-18T08:32:34.696Z,90.31
2022-08-18T08:33:34.669Z,90.00
2022-08-18T08:34:34.712Z,89.86
2022-08-18T08:35:49.993Z,89.66
2022-08-18T08:36:34.648Z,89.46
2022-08-18T08:37:34.636Z,89.26
2022-08-18T08:38:42.925Z,89.16
2022-08-18T08:39:34.710Z,88.71
2022-08-18T08:40:34.637Z,88.52
2022-08-18T08:41:34.580Z,88.21
2022-08-18T08:42:38.576Z,86.61
2022-08-18T08:43:34.577Z,86.98
2022-08-18T08:44:34.566Z,84.87
2022-08-18T08:45:34.579Z,84.67
2022-08-18T08:46:34.579Z,84.33
2022-08-18T08:47:34.552Z,83.43
2022-08-18T08:48:34.513Z,83.13
2022-08-18T08:49:34.970Z,83.19
2022-08-18T08:50:34.513Z,82.69
2022-08-18T08:51:34.473Z,81.89
2022-08-18T08:52:34.522Z,81.25
2022-08-18T08:53:34.509Z,81.25
2022-08-18T08:54:34.442Z,80.95
2022-08-18T08:55:34.432Z,80.65
2022-08-18T08:56:34.823Z,80.95
2022-08-18T08:57:34.426Z,80.76
2022-08-18T08:58:34.438Z,80.65
2022-08-18T08:59:34.396Z,79.55
2022-08-18T09:00:34.380Z,79.32
2022-08-18T09:01:34.460Z,79.22
2022-08-18T09:02:49.883Z,79.22
2022-08-18T09:03:34.363Z,79.11
2022-08-18T09:04:34.394Z,79.22
2022-08-18T09:05:34.325Z,79.41
2022-08-18T09:06:34.334Z,79.58
2022-08-18T09:07:35.746Z,78.88
2022-08-18T09:08:34.304Z,78.28
2022-08-18T09:09:34.698Z,77.58
2022-08-18T09:10:34.330Z,77.74
2022-08-18T09:11:34.262Z,77.55
2022-08-18T09:12:34.276Z,76.51
2022-08-18T09:13:34.276Z,76.21
2022-08-18T09:14:34.236Z,75.81
2022-08-18T09:15:34.228Z,75.78
2022-08-18T09:16:34.612Z,75.27
2022-08-18T09:17:34.617Z,75.71
2022-08-18T09:18:34.205Z,76.51
2022-08-18T09:19:34.185Z,76.01
2022-08-18T09:20:34.182Z,75.81
2022-08-18T09:21:34.166Z,75.37
2022-08-18T09:22:34.690Z,74.74
2022-08-18T09:23:34.586Z,73.21
2022-08-18T09:24:34.136Z,72.48
2022-08-18T09:25:34.123Z,71.61
2022-08-18T09:26:37.309Z,69.99
2022-08-18T09:27:48.507Z,69.09
2022-08-18T09:28:34.150Z,69.59
2022-08-18T09:29:34.416Z,69.39
2022-08-18T09:30:34.077Z,69.06
2022-08-18T09:31:34.064Z,68.37
2022-08-18T09:32:34.093Z,68.46
2022-08-18T09:33:34.041Z,67.37
2022-08-18T09:34:34.078Z,67.97
2022-08-18T09:35:34.028Z,67.57
2022-08-18T09:36:34.475Z,67.27
2022-08-18T09:37:34.009Z,67.57
2022-08-18T09:38:33.999Z,67.97
2022-08-18T09:39:33.992Z,67.97
2022-08-18T09:41:01.257Z,67.77
2022-08-18T09:41:33.970Z,67.77
2022-08-18T09:42:33.985Z,67.37
2022-08-18T09:43:33.944Z,67.37
2022-08-18T09:44:33.950Z,67.47
2022-08-18T09:45:34.468Z,67.47
2022-08-18T09:46:33.983Z,67.87
2022-08-18T09:47:33.902Z,67.77
2022-08-18T09:48:33.910Z,67.14
2022-08-18T09:49:38.066Z,66.44
2022-08-18T09:50:33.880Z,66.94
2022-08-18T09:51:33.864Z,65.92
2022-08-18T09:52:33.891Z,65.42
2022-08-18T09:53:33.879Z,64.76
2022-08-18T09:54:33.828Z,64.86
2022-08-18T09:55:33.815Z,64.76
2022-08-18T09:56:33.808Z,65.06
2022-08-18T09:57:42.608Z,65.88
2022-08-18T09:58:33.872Z,66.67
2022-08-18T09:59:34.123Z,66.48
2022-08-18T10:00:33.796Z,66.38
2022-08-18T10:01:34.307Z,65.78
2022-08-18T10:02:33.751Z,65.81
2022-08-18T10:03:33.762Z,66.41
2022-08-18T10:04:33.764Z,65.81
2022-08-18T10:05:33.731Z,67.04
2022-08-18T10:06:33.717Z,67.24
2022-08-18T10:07:38.759Z,67.57
2022-08-18T10:08:33.703Z,67.67
2022-08-18T10:09:36.699Z,67.97
2022-08-18T10:11:00.726Z,68.27
2022-08-18T10:11:33.666Z,67.90
2022-08-18T10:12:33.662Z,68.40
2022-08-18T10:13:38.822Z,68.73
2022-08-18T10:14:33.632Z,69.32
2022-08-18T13:04:55.875Z,70.36
2022-08-18T13:05:01.023Z,59.74
2022-08-18T13:06:01.235Z,60.13
2022-08-18T13:07:02.146Z,60.43
2022-08-18T13:08:03.986Z,60.13
2022-08-18T13:09:00.976Z,59.93
2022-08-18T13:10:01.014Z,59.93
2022-08-18T13:11:10.371Z,59.63
2022-08-18T13:12:00.955Z,59.74
2022-08-18T13:13:00.944Z,59.93
2022-08-18T13:14:00.946Z,60.03
2022-08-18T13:15:00.915Z,59.41
2022-08-18T13:16:01.462Z,59.41
2022-08-18T13:17:00.896Z,59.41
2022-08-18T13:18:00.885Z,59.41
2022-08-18T13:19:00.954Z,59.93
2022-08-18T13:20:00.996Z,59.80
2022-08-18T13:21:00.851Z,59.91
2022-08-18T13:22:00.881Z,59.80
2022-08-18T13:23:00.830Z,59.51
2022-08-18T13:24:01.310Z,59.11
2022-08-18T13:25:00.830Z,58.91
2022-08-18T13:26:01.958Z,59.41
2022-08-18T13:27:00.799Z,59.18
2022-08-18T13:28:02.074Z,58.72
2022-08-18T13:29:00.758Z,59.21
2022-08-18T13:30:00.758Z,59.31
2022-08-18T13:31:01.136Z,59.91
2022-08-18T13:32:00.771Z,59.74
2022-08-18T13:33:03.466Z,59.74
2022-08-18T13:34:04.042Z,60.23
2022-08-18T13:35:02.717Z,60.13
2022-08-18T13:36:00.709Z,59.53
2022-08-18T13:37:00.751Z,59.31
2022-08-18T13:38:02.396Z,59.01
2022-08-18T13:39:00.664Z,58.42
2022-08-18T13:40:02.045Z,58.19
2022-08-18T13:41:00.655Z,58.26
2022-08-18T13:42:00.934Z,57.74
2022-08-18T13:43:00.638Z,56.85
2022-08-18T13:44:00.622Z,56.23
2022-08-18T13:45:25.052Z,55.93
2022-08-18T13:46:01.010Z,56.02
2022-08-18T13:47:00.594Z,55.93
2022-08-18T13:48:00.607Z,55.30
2022-08-18T13:49:00.566Z,56.10
2022-08-18T13:50:00.556Z,56.20
2022-08-18T13:51:01.298Z,55.80
2022-08-18T13:52:03.085Z,55.58
2022-08-18T13:53:00.602Z,55.28
2022-08-18T13:54:26.434Z,55.18
2022-08-18T13:55:00.554Z,55.11
2022-08-18T13:56:00.491Z,56.52
2022-08-18T13:57:00.519Z,56.13
2022-08-18T13:58:00.714Z,56.55
2022-08-18T13:59:00.917Z,56.52
2022-08-18T14:00:00.458Z,56.13
2022-08-18T14:02:00.489Z,56.20
2022-08-18T14:03:00.454Z,55.70
2022-08-18T14:04:00.467Z,56.10
2022-08-18T14:05:00.416Z,55.70
2022-08-18T14:06:01.621Z,55.28
2022-08-18T14:07:02.168Z,55.08
2022-08-18T14:08:00.392Z,54.79
2022-08-18T14:09:00.386Z,54.79
2022-08-18T14:10:04.573Z,54.49
2022-08-18T14:11:00.346Z,55.08
2022-08-18T14:12:00.335Z,54.36
2022-08-18T14:13:00.816Z,53.87
2022-08-18T14:14:00.329Z,53.67
2022-08-18T14:15:00.331Z,53.47
2022-08-18T14:16:00.355Z,53.87
2022-08-18T14:17:00.295Z,53.97
2022-08-18T14:18:00.276Z,53.77
2022-08-18T14:19:00.265Z,53.97
2022-08-18T14:20:00.677Z,53.38
2022-08-18T14:21:00.254Z,54.06
2022-08-18T14:22:00.349Z,54.27
2022-08-18T14:23:00.240Z,53.87
2022-08-18T14:24:00.222Z,53.89
2022-08-18T14:25:00.539Z,53.57
2022-08-18T14:26:00.377Z,53.38
2022-08-18T14:27:00.503Z,53.87
2022-08-18T14:28:03.991Z,54.36
2022-08-18T14:29:00.187Z,54.69
2022-08-18T14:30:00.319Z,54.59
2022-08-18T14:31:00.158Z,54.59
2022-08-18T14:32:00.125Z,54.39
2022-08-18T14:33:00.397Z,54.98
2022-08-18T14:34:04.046Z,54.79
2022-08-18T14:35:24.425Z,54.59
2022-08-18T14:36:07.077Z,54.79
2022-08-18T14:37:00.122Z,54.88
2022-08-18T14:38:00.079Z,54.59
2022-08-18T14:39:00.123Z,54.29
2022-08-18T14:40:00.258Z,54.39
2022-08-18T14:41:00.387Z,53.99
2022-08-18T14:42:02.903Z,54.56
2022-08-18T14:43:00.025Z,53.97
2022-08-18T14:44:11.693Z,53.80
2022-08-18T14:45:17.934Z,54.69
2022-08-18T14:46:00.009Z,54.06
2022-08-18T14:46:59.999Z,54.19
2022-08-18T14:48:00.403Z,54.79
2022-08-18T14:48:59.945Z,53.80
2022-08-18T14:50:00.049Z,53.99
2022-08-18T14:50:59.928Z,54.59
2022-08-18T14:51:59.972Z,54.22
2022-08-18T14:52:59.915Z,54.81
2022-08-18T14:53:59.894Z,55.30
2022-08-18T14:55:00.265Z,54.91
2022-08-18T14:55:59.864Z,54.79
2022-08-18T14:56:59.869Z,54.98
2022-08-18T14:57:59.897Z,54.49
2022-08-18T14:58:59.845Z,53.97
2022-08-18T14:59:59.834Z,53.15
2022-08-18T15:01:00.027Z,53.25
2022-08-18T15:02:00.309Z,53.12
2022-08-18T15:03:00.094Z,52.93
2022-08-18T15:03:59.815Z,53.22
2022-08-18T15:04:59.799Z,53.55
2022-08-18T15:05:59.773Z,53.87
2022-08-18T15:06:59.757Z,54.06
2022-08-18T15:07:59.748Z,54.56
2022-08-18T15:09:00.195Z,55.05
2022-08-18T15:10:15.062Z,54.53
2022-08-18T15:10:59.737Z,53.42
2022-08-18T15:11:59.719Z,52.83
2022-08-18T15:12:59.698Z,52.83
2022-08-18T15:13:59.683Z,52.73
2022-08-18T15:14:59.717Z,52.73
2022-08-18T15:16:01.866Z,52.63
2022-08-18T15:16:59.656Z,52.63
2022-08-18T15:17:59.649Z,52.41
2022-08-18T15:18:59.632Z,51.50
2022-08-18T15:20:01.209Z,51.00
2022-08-18T15:20:59.626Z,50.59
2022-08-18T15:21:59.637Z,50.29
2022-08-18T15:23:00.044Z,50.19
2022-08-18T15:23:59.595Z,50.07
2022-08-18T15:24:59.586Z,49.26
2022-08-18T15:25:59.568Z,49.35
2022-08-18T15:27:05.469Z,49.35
2022-08-18T15:27:59.593Z,49.26
2022-08-18T15:29:00.731Z,49.92
2022-08-18T15:29:59.529Z,49.04
2022-08-18T15:32:01.934Z,50.81
2022-08-18T15:32:59.507Z,51.42
2022-08-18T15:33:59.515Z,52.26
2022-08-18T15:34:59.515Z,53.57
2022-08-18T15:35:59.913Z,53.28
2022-08-18T15:37:09.821Z,53.38
2022-08-18T15:37:59.480Z,53.15
2022-08-18T15:38:59.448Z,52.44
2022-08-18T15:39:59.584Z,51.84
2022-08-18T15:40:59.427Z,51.52
2022-08-18T15:41:59.870Z,51.84
2022-08-18T15:43:01.324Z,52.53